Погода Жаруна неделю

Рондония, Бразилия

25 - 31 июля
  • 25июля
    Сегодня
    +19°
    +37°
    Небольшая облачность
    ВремяПогодаТемператураВлажностьДавлениеВетер, м/сВероятность осадков
    02:00Ясно и безоблачно+22°C72 %744 мм1.6 м/с5 %
    05:00Облачно с прояснениями+20°C79 %744 мм1.5 м/с5 %
    08:00Ясно и безоблачно+24°C72 %746 мм0.5 м/с5 %
    11:00Практически безоблачно+32°C36 %747 мм0.3 м/с5 %
    14:00Небольшая облачность+35°C29 %744 мм0.9 м/с5 %
    17:00Практически безоблачно+35°C44 %743 мм0.7 м/с5 %
    20:00Облачно с прояснениями+25°C52 %743 мм1.5 м/с5 %
    23:00Практически безоблачно+24°C60 %744 мм1.1 м/с5 %
  • 26июля
    Пятница
    +21°
    +37°
    Ясно и безоблачно
    ВремяПогодаТемператураВлажностьДавлениеВетер, м/сВероятность осадков
    02:00Практически безоблачно+22°C73 %743 мм1.6 м/с5 %
    05:00Небольшая облачность+21°C74 %743 мм0.8 м/с5 %
    08:00Облачно с прояснениями+24°C68 %745 мм0.9 м/с5 %
    11:00Ясно и безоблачно+33°C39 %745 мм0.4 м/с5 %
    14:00Ясно и безоблачно+35°C29 %742 мм1.4 м/с5 %
    17:00Ясно и безоблачно+36°C45 %741 мм0.8 м/с5 %
    20:00Ясно и безоблачно+28°C52 %742 мм0.9 м/с5 %
    23:00Ясно и безоблачно+24°C56 %742 мм0.4 м/с5 %
  • 27июля
    Суббота
    +18°
    +37°
    Практически безоблачно
    ВремяПогодаТемператураВлажностьДавлениеВетер, м/сВероятность осадков
    02:00Ясно и безоблачно+22°C69 %742 мм2.0 м/с5 %
    05:00Ясно и безоблачно+22°C73 %742 мм1.7 м/с5 %
    08:00Ясно и безоблачно+24°C67 %744 мм1.1 м/с5 %
    11:00Ясно и безоблачно+33°C39 %745 мм0.6 м/с5 %
    14:00Практически безоблачно+37°C21 %742 мм1.3 м/с5 %
    17:00Небольшая облачность+36°C38 %742 мм1.3 м/с5 %
    20:00Ясно и безоблачно+28°C40 %742 мм2.1 м/с5 %
    23:00Ясно и безоблачно+25°C51 %743 мм1.6 м/с5 %
  • 28июля
    Воскресенье
    +18°
    +37°
    Ясно и безоблачно
    ВремяПогодаТемператураВлажностьДавлениеВетер, м/сВероятность осадков
    02:00Ясно и безоблачно+24°C54 %743 мм1.0 м/с5 %
    05:00Практически безоблачно+20°C66 %743 мм0.6 м/с5 %
    08:00Ясно и безоблачно+24°C58 %745 мм0.7 м/с5 %
    11:00Ясно и безоблачно+35°C28 %745 мм1.0 м/с5 %
    14:00Ясно и безоблачно+37°C19 %743 мм2.3 м/с5 %
    17:00Ясно и безоблачно+36°C35 %743 мм1.3 м/с5 %
    20:00Ясно и безоблачно+26°C38 %743 мм2.1 м/с5 %
    23:00Ясно и безоблачно+23°C46 %744 мм2.0 м/с5 %
Мы используем cookies
Соглашаюсь